Time;durP1;ratioP1;P1;durP2;ratioP2;P2;SDS_P1;SDS_P2;PMS_P1;PMS_P2;Temp;Humidity;BMP_temperature;BMP_pressure;BME280_temperature;BME280_humidity;BME280_pressure;Samples;Min_cycle;Max_cycle;Signal;HPM_P1;HPM_P2
2021/12/09 00:00:15;;;;;;;56.17;32.33;;;0.60;92.90;;;;;;4963749;28;20409;-80
2021/12/09 00:02:42;;;;;;;44.70;30.33;;;0.60;92.80;;;;;;4971596;28;20458;-80
2021/12/09 00:05:12;;;;;;;68.28;32.70;;;0.60;92.80;;;;;;4983622;28;20454;-80
2021/12/09 00:07:42;;;;;;;131.38;37.13;;;0.60;92.70;;;;;;4975228;28;20419;-79
2021/12/09 00:10:12;;;;;;;40.95;29.50;;;0.50;92.70;;;;;;4973562;28;20431;-80
2021/12/09 00:12:58;;;;;;;41.28;29.60;;;0.40;93.00;;;;;;4973933;28;20422;-81
2021/12/09 00:15:25;;;;;;;35.60;28.27;;;0.40;93.00;;;;;;4961347;28;20423;-80
2021/12/09 00:17:52;;;;;;;35.97;28.63;;;0.50;93.00;;;;;;4973015;28;20462;-80
2021/12/09 00:20:19;;;;;;;34.38;28.13;;;0.50;92.80;;;;;;4964626;28;20436;-80
2021/12/09 00:22:46;;;;;;;33.97;27.65;;;0.60;92.60;;;;;;4955466;29;20469;-80
2021/12/09 00:25:14;;;;;;;36.43;28.00;;;0.60;92.50;;;;;;4964277;28;20417;-80
2021/12/09 00:27:42;;;;;;;37.43;29.20;;;0.60;92.30;;;;;;4965060;28;20473;-80
2021/12/09 00:30:11;;;;;;;44.47;32.20;;;0.70;92.20;;;;;;4976283;28;20410;-81
2021/12/09 00:32:40;;;;;;;44.63;33.43;;;0.60;92.20;;;;;;4974285;28;20403;-80
2021/12/09 00:35:09;;;;;;;40.03;31.98;;;0.60;92.40;;;;;;4979410;28;20434;-80
2021/12/09 00:37:40;;;;;;;46.28;33.42;;;0.60;92.80;;;;;;4974473;28;20404;-80
2021/12/09 00:40:31;;;;;;;39.13;30.13;;;0.50;92.80;;;;;;4974390;28;20458;-80
2021/12/09 00:42:59;;;;;;;41.47;31.77;;;0.50;92.60;;;;;;4975651;28;20419;-80
2021/12/09 00:45:27;;;;;;;38.00;30.70;;;0.50;92.50;;;;;;4974467;28;20888;-80
2021/12/09 00:48:01;;;;;;;36.25;29.90;;;0.60;92.50;;;;;;4960620;28;20415;-81
2021/12/09 00:50:32;;;;;;;32.07;25.13;;;0.50;92.40;;;;;;4969244;28;21016;-82
2021/12/09 00:52:59;;;;;;;37.10;30.15;;;0.50;92.50;;;;;;4961357;28;20917;-79
2021/12/09 00:55:27;;;;;;;40.00;31.30;;;0.50;92.50;;;;;;4974401;28;20488;-80
2021/12/09 00:57:59;;;;;;;33.53;26.90;;;0.40;92.50;;;;;;4968046;28;20540;-81
2021/12/09 01:00:31;;;;;;;35.58;28.55;;;0.40;92.70;;;;;;4960060;28;20916;-80
2021/12/09 01:03:13;;;;;;;32.90;27.05;;;0.40;92.50;;;;;;4965855;28;20471;-81
2021/12/09 01:05:40;;;;;;;36.13;29.00;;;0.50;92.30;;;;;;4966014;28;20411;-80
2021/12/09 01:08:07;;;;;;;38.15;30.83;;;0.50;92.10;;;;;;4968434;28;20401;-81
2021/12/09 01:10:34;;;;;;;37.63;30.25;;;0.30;92.30;;;;;;4967515;28;20450;-80
2021/12/09 01:13:08;;;;;;;36.10;29.40;;;0.10;92.70;;;;;;4970949;28;20473;-81
2021/12/09 01:15:43;;;;;;;33.70;27.47;;;0.00;92.70;;;;;;4972364;28;20538;-80
2021/12/09 01:18:10;;;;;;;33.63;26.85;;;0.10;92.80;;;;;;4972613;28;20888;-80
2021/12/09 01:20:37;;;;;;;35.83;29.20;;;0.20;92.80;;;;;;4972455;28;20432;-81
2021/12/09 01:23:10;;;;;;;30.60;26.40;;;0.20;92.70;;;;;;4976210;28;20869;-82
2021/12/09 01:25:38;;;;;;;33.15;26.63;;;0.30;92.60;;;;;;4985947;28;20400;-81
2021/12/09 01:28:07;;;;;;;36.85;28.67;;;0.30;92.50;;;;;;4975729;28;20881;-81
2021/12/09 01:30:35;;;;;;;34.05;26.63;;;0.40;92.40;;;;;;4961827;28;20434;-80
2021/12/09 01:33:03;;;;;;;35.83;28.25;;;0.50;92.20;;;;;;4962641;28;20436;-80
2021/12/09 01:35:47;;;;;;;33.27;26.10;;;0.50;92.30;;;;;;4968630;28;20407;-81
2021/12/09 01:38:18;;;;;;;38.45;30.35;;;0.50;92.30;;;;;;4988771;28;20444;-81
2021/12/09 01:40:46;;;;;;;34.47;28.52;;;0.50;92.20;;;;;;4976867;28;20431;-80
2021/12/09 01:43:14;;;;;;;33.05;26.67;;;0.50;92.20;;;;;;4993598;28;20419;-81
2021/12/09 01:45:46;;;;;;;35.50;27.07;;;0.50;92.30;;;;;;4992689;28;20416;-81
2021/12/09 01:48:16;;;;;;;32.17;26.47;;;0.50;92.30;;;;;;4982285;28;20431;-81
2021/12/09 01:50:47;;;;;;;33.42;27.67;;;0.50;92.20;;;;;;4962779;28;20773;-80
2021/12/09 01:53:14;;;;;;;30.63;24.85;;;0.50;92.20;;;;;;4973429;28;20397;-81
2021/12/09 01:55:46;;;;;;;32.67;26.08;;;0.40;92.10;;;;;;4973850;28;20403;-81
2021/12/09 01:58:15;;;;;;;36.90;28.20;;;0.50;92.10;;;;;;4981440;28;20419;-80
2021/12/09 02:00:42;;;;;;;37.83;28.73;;;0.30;91.90;;;;;;4974556;28;20820;-80
2021/12/09 02:03:09;;;;;;;36.20;27.48;;;0.20;92.20;;;;;;4969341;28;20423;-80
2021/12/09 02:05:40;;;;;;;44.72;33.25;;;0.20;92.40;;;;;;4977601;28;20502;-81
2021/12/09 02:08:09;;;;;;;43.05;31.85;;;0.30;92.60;;;;;;4986633;28;20405;-79
2021/12/09 02:10:35;;;;;;;43.22;31.20;;;0.30;92.80;;;;;;4971115;28;20415;-80
2021/12/09 02:13:03;;;;;;;43.17;32.63;;;0.30;92.80;;;;;;4968999;28;20413;-82
2021/12/09 02:15:30;;;;;;;34.60;27.05;;;0.30;92.80;;;;;;4977274;28;20893;-80
2021/12/09 02:18:05;;;;;;;35.10;27.83;;;0.20;92.90;;;;;;4970236;28;20823;-81
2021/12/09 02:20:34;;;;;;;35.28;26.77;;;0.30;92.90;;;;;;4976845;28;20417;-80
2021/12/09 02:23:09;;;;;;;39.70;27.95;;;0.40;92.80;;;;;;4955481;28;20502;-80
2021/12/09 02:25:38;;;;;;;43.58;30.88;;;0.40;92.40;;;;;;4970045;28;20409;-80
2021/12/09 02:28:05;;;;;;;38.97;28.23;;;0.50;92.30;;;;;;4978018;28;20884;-81
2021/12/09 02:30:32;;;;;;;37.35;27.88;;;0.50;92.30;;;;;;4989820;28;20403;-79
2021/12/09 02:33:06;;;;;;;44.67;32.55;;;0.50;92.40;;;;;;4980028;28;20411;-80
2021/12/09 02:35:38;;;;;;;40.10;29.45;;;0.50;92.50;;;;;;4961106;28;20956;-81
2021/12/09 02:38:08;;;;;;;38.28;29.05;;;0.50;92.60;;;;;;4985781;28;20506;-80
2021/12/09 02:40:45;;;;;;;36.22;27.90;;;0.50;92.60;;;;;;4980869;28;20447;-81
2021/12/09 02:43:14;;;;;;;37.90;28.20;;;0.60;92.50;;;;;;4978932;28;20522;-80
2021/12/09 02:45:52;;;;;;;35.03;26.30;;;0.60;92.40;;;;;;4969917;28;20405;-81
2021/12/09 02:48:25;;;;;;;33.05;25.75;;;0.60;92.30;;;;;;4978361;28;20404;-81
2021/12/09 02:50:53;;;;;;;34.25;25.65;;;0.60;92.30;;;;;;4984907;28;20399;-80
2021/12/09 02:53:21;;;;;;;30.92;24.83;;;0.60;92.40;;;;;;4968059;28;20450;-80
2021/12/09 02:55:48;;;;;;;34.20;26.08;;;0.60;92.40;;;;;;4960339;28;20409;-80
2021/12/09 02:58:22;;;;;;;32.28;24.70;;;0.70;92.40;;;;;;4977344;28;20772;-82
2021/12/09 03:00:56;;;;;;;29.27;23.67;;;0.70;92.20;;;;;;4971841;28;20759;-80
2021/12/09 03:03:24;;;;;;;27.45;22.42;;;0.70;92.20;;;;;;4972867;28;20551;-80
2021/12/09 03:05:53;;;;;;;26.90;21.48;;;0.80;92.20;;;;;;4973649;28;20424;-80
2021/12/09 03:08:32;;;;;;;26.52;21.27;;;0.80;92.20;;;;;;4972599;28;20403;-80
2021/12/09 03:11:06;;;;;;;27.02;21.33;;;0.80;92.20;;;;;;4983915;28;20482;-80
2021/12/09 03:13:41;;;;;;;28.05;21.73;;;0.80;92.00;;;;;;4975153;28;20417;-80
2021/12/09 03:16:11;;;;;;;30.73;23.80;;;0.80;92.00;;;;;;4974933;28;20424;-81
2021/12/09 03:18:45;;;;;;;29.70;23.23;;;0.60;91.80;;;;;;4976101;28;20460;-81
2021/12/09 03:21:17;;;;;;;34.40;25.88;;;0.50;92.00;;;;;;4984452;28;20431;-80
2021/12/09 03:23:44;;;;;;;32.92;25.13;;;0.40;92.00;;;;;;4978569;28;20431;-82
2021/12/09 03:26:12;;;;;;;31.83;24.40;;;0.40;92.20;;;;;;4970843;28;20415;-81
2021/12/09 03:28:39;;;;;;;29.13;24.02;;;0.50;92.20;;;;;;4979189;28;20419;-81
2021/12/09 03:31:07;;;;;;;30.70;23.70;;;0.50;92.00;;;;;;4976950;28;20486;-80
2021/12/09 03:33:37;;;;;;;30.35;23.08;;;0.40;92.00;;;;;;4958409;29;20424;-82
2021/12/09 03:36:06;;;;;;;30.45;23.55;;;0.40;92.00;;;;;;4958677;28;20415;-80
2021/12/09 03:38:34;;;;;;;34.13;25.85;;;0.40;92.10;;;;;;4961281;28;20420;-81
2021/12/09 03:41:03;;;;;;;33.58;26.05;;;0.30;92.00;;;;;;4970981;28;20431;-80
2021/12/09 03:43:32;;;;;;;34.10;25.58;;;0.10;92.00;;;;;;4963940;28;20885;-81
2021/12/09 03:45:59;;;;;;;34.17;25.55;;;0.00;92.30;;;;;;4970186;28;20427;-81
2021/12/09 03:48:28;;;;;;;28.17;22.10;;;0.00;92.40;;;;;;4975980;28;20420;-81
2021/12/09 03:50:55;;;;;;;31.75;23.42;;;0.10;92.30;;;;;;4980507;28;20917;-79
2021/12/09 03:53:23;;;;;;;28.35;22.63;;;0.30;92.00;;;;;;4979611;28;20404;-81
2021/12/09 03:55:57;;;;;;;27.13;21.10;;;0.30;91.80;;;;;;4976458;28;20899;-81
2021/12/09 03:58:33;;;;;;;26.67;20.98;;;0.30;91.90;;;;;;4978670;28;20506;-81
2021/12/09 04:01:01;;;;;;;28.00;23.33;;;0.30;92.30;;;;;;4968287;28;20441;-81
2021/12/09 04:03:28;;;;;;;29.60;22.88;;;0.30;92.10;;;;;;4939148;28;20404;-81
2021/12/09 04:05:55;;;;;;;26.70;21.80;;;0.20;92.10;;;;;;4975117;28;20427;-81
2021/12/09 04:08:22;;;;;;;25.88;20.27;;;0.20;92.30;;;;;;4975348;28;20876;-80
2021/12/09 04:10:51;;;;;;;24.42;19.23;;;0.30;92.40;;;;;;4974675;28;20416;-81
2021/12/09 04:13:18;;;;;;;26.30;20.65;;;0.40;92.30;;;;;;4964687;28;20899;-80
2021/12/09 04:15:46;;;;;;;26.02;20.40;;;0.40;92.20;;;;;;4974375;28;20460;-80
2021/12/09 04:18:13;;;;;;;24.02;19.83;;;0.40;92.40;;;;;;4977818;28;20533;-81
2021/12/09 04:20:41;;;;;;;23.90;18.73;;;0.30;92.30;;;;;;4977380;28;20423;-80
2021/12/09 04:23:08;;;;;;;25.65;19.33;;;0.40;92.30;;;;;;4977286;28;20423;-82
2021/12/09 04:25:35;;;;;;;23.92;20.00;;;0.50;92.30;;;;;;4971938;28;20421;-80
2021/12/09 04:28:03;;;;;;;23.87;20.20;;;0.40;92.30;;;;;;4970164;28;20443;-79
2021/12/09 04:30:30;;;;;;;24.07;18.83;;;0.30;92.30;;;;;;4974972;28;20408;-80
2021/12/09 04:33:00;;;;;;;23.17;18.42;;;0.40;92.60;;;;;;4963037;28;20423;-81
2021/12/09 04:35:27;;;;;;;20.35;16.92;;;0.40;92.40;;;;;;4973736;28;20422;-80
2021/12/09 04:37:54;;;;;;;23.90;18.37;;;0.40;92.40;;;;;;4963522;28;20889;-81
2021/12/09 04:40:22;;;;;;;22.58;18.20;;;0.40;92.40;;;;;;4967979;28;20419;-80
2021/12/09 04:42:49;;;;;;;20.63;17.30;;;0.50;92.30;;;;;;4966603;28;20513;-80
2021/12/09 04:45:16;;;;;;;21.83;18.08;;;0.60;92.20;;;;;;4972180;28;20466;-79
2021/12/09 04:47:43;;;;;;;20.63;17.13;;;0.50;92.10;;;;;;4974113;28;20419;-79
2021/12/09 04:50:11;;;;;;;20.48;17.67;;;0.60;92.20;;;;;;4979238;28;20415;-80
2021/12/09 04:52:38;;;;;;;19.73;16.48;;;0.60;92.20;;;;;;4974109;28;20431;-81
2021/12/09 04:55:07;;;;;;;19.70;15.98;;;0.60;92.10;;;;;;4962878;28;20434;-80
2021/12/09 04:57:35;;;;;;;20.83;17.25;;;0.60;92.00;;;;;;4977254;28;20414;-78
2021/12/09 05:00:10;;;;;;;24.02;19.60;;;0.60;91.90;;;;;;4979664;28;20405;-80
2021/12/09 05:05:23;;;;;;;21.90;18.92;;;0.50;92.10;;;;;;4977127;28;20399;-80
2021/12/09 05:07:50;;;;;;;22.63;18.77;;;0.50;92.10;;;;;;4972900;28;20428;-79
2021/12/09 05:10:17;;;;;;;20.95;17.95;;;0.50;91.90;;;;;;4972448;28;20403;-79
2021/12/09 05:12:44;;;;;;;21.92;17.02;;;0.50;92.00;;;;;;4954799;28;20755;-80
2021/12/09 05:15:11;;;;;;;39.13;24.38;;;0.50;92.00;;;;;;4965151;28;20470;-80
2021/12/09 05:17:38;;;;;;;58.08;33.92;;;0.60;91.90;;;;;;4972936;28;20426;-80
2021/12/09 05:20:07;;;;;;;27.67;20.00;;;0.50;91.90;;;;;;4963594;28;20932;-80
2021/12/09 05:22:34;;;;;;;20.87;17.17;;;0.50;92.00;;;;;;4957887;28;20437;-80
2021/12/09 05:25:01;;;;;;;23.67;18.50;;;0.50;91.90;;;;;;4959827;28;20879;-80
2021/12/09 05:27:29;;;;;;;25.13;20.15;;;0.40;92.00;;;;;;4973483;28;20411;-80
2021/12/09 05:30:11;;;;;;;23.95;19.25;;;0.30;92.10;;;;;;4958585;28;20411;-79
2021/12/09 05:32:38;;;;;;;25.53;20.00;;;0.30;92.30;;;;;;4960458;28;20405;-80
2021/12/09 05:35:08;;;;;;;25.70;20.85;;;0.30;92.10;;;;;;4970371;28;20434;-80
2021/12/09 05:37:35;;;;;;;24.45;19.58;;;0.20;92.10;;;;;;4976224;28;20774;-79
2021/12/09 05:40:03;;;;;;;26.05;20.25;;;0.10;92.30;;;;;;4965916;28;20510;-79
2021/12/09 05:42:32;;;;;;;22.33;18.80;;;0.10;92.20;;;;;;4985838;28;20932;-80
2021/12/09 05:44:59;;;;;;;23.17;18.77;;;0.00;92.30;;;;;;4964056;28;20424;-79
2021/12/09 05:47:26;;;;;;;24.03;19.90;;;0.00;92.30;;;;;;4963320;28;20401;-80
2021/12/09 05:49:54;;;;;;;24.02;18.45;;;0.10;92.30;;;;;;4975495;28;20415;-80
2021/12/09 05:52:21;;;;;;;22.00;18.35;;;0.10;92.10;;;;;;4968127;28;20413;-78
2021/12/09 05:54:48;;;;;;;26.23;20.33;;;0.20;92.20;;;;;;4958995;28;20413;-80
2021/12/09 05:57:17;;;;;;;26.98;20.60;;;0.20;92.10;;;;;;4976663;28;20427;-80
2021/12/09 05:59:44;;;;;;;23.65;18.90;;;0.20;92.10;;;;;;4973953;28;20925;-79
2021/12/09 06:02:13;;;;;;;22.85;18.48;;;0.10;91.80;;;;;;4967811;28;20834;-78
2021/12/09 06:04:41;;;;;;;25.73;19.13;;;0.10;91.90;;;;;;4960096;28;20539;-79
2021/12/09 06:07:09;;;;;;;24.80;19.90;;;0.10;92.10;;;;;;4977707;28;20985;-79
2021/12/09 06:09:36;;;;;;;24.17;19.42;;;0.10;92.20;;;;;;4961831;28;20407;-79
2021/12/09 06:12:05;;;;;;;23.57;18.63;;;0.10;92.30;;;;;;4965234;28;20497;-79
2021/12/09 06:14:32;;;;;;;23.40;18.80;;;0.20;92.10;;;;;;4965808;28;20414;-79
2021/12/09 06:17:00;;;;;;;25.50;19.38;;;0.10;92.10;;;;;;4983813;28;20845;-80
2021/12/09 06:19:28;;;;;;;23.88;18.85;;;0.00;92.20;;;;;;4971294;28;20405;-80
2021/12/09 06:21:55;;;;;;;22.77;18.15;;;0.00;92.50;;;;;;4966731;28;20791;-80
2021/12/09 06:24:23;;;;;;;22.23;18.35;;;0.10;92.20;;;;;;4976888;28;20407;-79
2021/12/09 06:26:49;;;;;;;22.15;17.70;;;0.00;92.20;;;;;;4971629;28;20770;-79
2021/12/09 06:29:17;;;;;;;20.57;17.50;;;0.00;92.30;;;;;;4957722;28;20975;-79
2021/12/09 06:31:43;;;;;;;20.88;17.42;;;0.10;92.30;;;;;;4971078;28;20439;-79
2021/12/09 06:34:12;;;;;;;19.90;15.73;;;0.20;92.00;;;;;;4976122;28;20466;-79
2021/12/09 06:36:41;;;;;;;19.85;16.38;;;0.20;92.00;;;;;;4961575;28;20405;-80
2021/12/09 06:39:08;;;;;;;20.85;16.48;;;0.20;91.90;;;;;;4963506;28;20419;-79
2021/12/09 06:41:35;;;;;;;19.75;16.20;;;0.20;91.90;;;;;;4975673;28;20403;-79
2021/12/09 06:44:03;;;;;;;20.75;16.65;;;0.20;91.70;;;;;;4976194;28;20434;-79
2021/12/09 06:46:30;;;;;;;20.77;16.58;;;0.20;91.60;;;;;;4970696;28;20955;-79
2021/12/09 06:48:57;;;;;;;18.38;14.10;;;0.20;91.70;;;;;;4972278;28;20411;-79
2021/12/09 06:51:25;;;;;;;12.70;10.60;;;0.20;91.60;;;;;;4970647;28;20408;-79
2021/12/09 06:53:52;;;;;;;11.55;9.73;;;0.30;91.20;;;;;;4966564;28;20408;-80
2021/12/09 06:56:19;;;;;;;1.60;0.40;;;0.40;90.80;;;;;;4974304;28;20416;-85
2021/12/09 06:58:46;;;;;;;0.20;0.10;;;0.90;85.80;;;;;;4976283;28;20438;-79
2021/12/09 07:01:14;;;;;;;0.17;0.10;;;2.00;78.10;;;;;;4975654;28;20407;-78
2021/12/09 07:03:42;;;;;;;0.80;0.10;;;3.00;71.10;;;;;;4969237;28;20912;-78
2021/12/09 07:06:11;;;;;;;0.30;0.27;;;3.70;66.80;;;;;;4966718;28;20424;-79
2021/12/09 07:08:46;;;;;;;0.13;0.10;;;4.10;65.60;;;;;;4972472;28;20450;-79
2021/12/09 07:11:16;;;;;;;0.30;0.10;;;4.40;62.80;;;;;;4968562;28;20431;-80
2021/12/09 07:13:44;;;;;;;0.30;0.10;;;4.80;61.20;;;;;;4981404;28;20415;-79
2021/12/09 07:16:14;;;;;;;0.20;0.10;;;5.00;60.50;;;;;;4971010;28;20463;-79
2021/12/09 07:18:41;;;;;;;0.20;0.10;;;5.30;58.20;;;;;;4966810;28;20461;-80
2021/12/09 07:21:08;;;;;;;0.33;0.27;;;5.30;58.50;;;;;;4976405;28;20494;-80
2021/12/09 07:23:35;;;;;;;0.30;0.30;;;5.40;58.20;;;;;;4961624;28;20469;-79
2021/12/09 07:26:03;;;;;;;0.25;0.10;;;5.50;58.30;;;;;;4967760;28;20438;-81
2021/12/09 07:28:30;;;;;;;0.20;0.10;;;5.50;57.60;;;;;;4967306;28;20420;-81
2021/12/09 07:30:57;;;;;;;0.40;0.15;;;5.60;56.40;;;;;;4970783;28;20427;-79
2021/12/09 07:33:24;;;;;;;0.82;0.20;;;5.70;56.50;;;;;;4979524;28;20435;-80
2021/12/09 07:35:51;;;;;;;0.38;0.20;;;5.80;55.80;;;;;;4969721;28;21081;-80
2021/12/09 07:38:20;;;;;;;0.20;0.10;;;5.80;56.30;;;;;;4968391;28;20546;-80
2021/12/09 07:40:48;;;;;;;0.40;0.10;;;5.80;55.80;;;;;;4962866;28;20881;-80
2021/12/09 07:43:15;;;;;;;0.80;0.30;;;5.90;55.50;;;;;;4972954;28;20923;-80
2021/12/09 07:45:42;;;;;;;0.60;0.13;;;6.10;54.40;;;;;;4973888;28;20891;-80
2021/12/09 07:48:09;;;;;;;0.90;0.20;;;6.20;54.50;;;;;;4958834;28;20498;-80
2021/12/09 07:50:38;;;;;;;0.38;0.10;;;6.20;53.70;;;;;;4970852;28;20469;-80
2021/12/09 07:53:07;;;;;;;0.10;0.10;;;6.30;53.10;;;;;;4968412;28;20930;-79
2021/12/09 07:55:34;;;;;;;0.15;0.10;;;6.30;53.40;;;;;;4940400;28;20805;-80
2021/12/09 07:58:01;;;;;;;0.43;0.10;;;6.30;53.20;;;;;;4971735;28;20422;-80
2021/12/09 08:00:31;;;;;;;0.40;0.20;;;6.30;53.40;;;;;;4978957;28;20420;-82
2021/12/09 08:02:59;;;;;;;0.30;0.20;;;6.40;52.40;;;;;;4969425;28;20784;-79
2021/12/09 08:05:28;;;;;;;0.30;0.10;;;6.50;51.40;;;;;;4967475;28;20458;-79
2021/12/09 08:07:55;;;;;;;0.30;0.10;;;6.50;51.40;;;;;;4965644;28;20976;-79
2021/12/09 08:10:23;;;;;;;0.40;0.15;;;6.60;51.70;;;;;;4967447;28;20416;-80
2021/12/09 08:12:51;;;;;;;0.60;0.20;;;6.60;51.30;;;;;;4972040;28;20419;-79
2021/12/09 08:15:34;;;;;;;0.55;0.28;;;6.70;51.10;;;;;;4973832;28;20431;-81
2021/12/09 08:18:24;;;;;;;0.30;0.20;;;6.80;49.80;;;;;;4979629;28;20485;-80
2021/12/09 08:20:54;;;;;;;0.60;0.15;;;7.00;49.30;;;;;;4973209;28;20426;-78
2021/12/09 08:23:22;;;;;;;0.45;0.10;;;7.00;51.10;;;;;;4956786;28;20438;-81
2021/12/09 08:25:49;;;;;;;1.00;0.20;;;7.00;50.00;;;;;;4979695;28;20980;-81
2021/12/09 08:28:16;;;;;;;0.70;0.20;;;7.00;49.60;;;;;;4967938;28;20419;-78
2021/12/09 08:30:44;;;;;;;1.20;0.20;;;7.00;48.20;;;;;;4971294;28;20411;-79
2021/12/09 08:33:21;;;;;;;0.30;0.20;;;7.00;49.80;;;;;;4969872;28;20442;-78
2021/12/09 08:35:50;;;;;;;0.70;0.20;;;7.10;49.50;;;;;;4970035;28;20437;-78
2021/12/09 08:38:17;;;;;;;0.70;0.32;;;7.00;50.00;;;;;;4968890;28;20430;-79
2021/12/09 08:40:46;;;;;;;0.65;0.30;;;7.00;50.20;;;;;;4972309;28;20454;-80
2021/12/09 08:43:14;;;;;;;0.50;0.20;;;7.00;48.20;;;;;;4983590;28;20928;-79
2021/12/09 08:45:41;;;;;;;0.77;0.25;;;7.10;48.60;;;;;;4980844;28;20398;-78
2021/12/09 08:48:08;;;;;;;0.63;0.20;;;7.00;48.60;;;;;;4989680;28;20404;-81
2021/12/09 08:50:44;;;;;;;0.98;0.30;;;6.90;49.10;;;;;;4975135;28;20443;-80
2021/12/09 08:53:17;;;;;;;0.80;0.30;;;7.00;49.10;;;;;;4984671;28;20480;-79
2021/12/09 08:55:49;;;;;;;0.95;0.30;;;7.00;49.80;;;;;;4968225;28;20426;-81
2021/12/09 08:58:16;;;;;;;1.58;0.85;;;7.10;47.80;;;;;;4971820;28;20417;-78
2021/12/09 09:00:44;;;;;;;0.63;0.20;;;7.10;48.00;;;;;;4992109;28;20393;-79
2021/12/09 09:03:13;;;;;;;0.52;0.20;;;7.00;48.00;;;;;;4985726;28;20463;-77
2021/12/09 09:05:41;;;;;;;0.70;0.20;;;7.10;47.70;;;;;;4992731;28;20939;-79
2021/12/09 09:08:08;;;;;;;0.70;0.30;;;7.20;48.30;;;;;;4964440;28;20426;-79
2021/12/09 09:10:41;;;;;;;0.63;0.20;;;7.20;46.90;;;;;;4975334;28;20405;-81
2021/12/09 09:13:09;;;;;;;0.60;0.20;;;7.10;47.70;;;;;;4973121;28;20901;-81
2021/12/09 09:15:38;;;;;;;0.30;0.10;;;7.20;47.30;;;;;;4962565;28;20537;-81
2021/12/09 09:18:06;;;;;;;0.70;0.15;;;7.20;46.00;;;;;;4944059;28;20443;-78
2021/12/09 09:20:39;;;;;;;0.90;0.20;;;7.30;46.30;;;;;;4969506;28;20427;-79
2021/12/09 09:23:09;;;;;;;0.20;0.10;;;7.30;46.80;;;;;;4968829;28;20481;-81
2021/12/09 09:25:37;;;;;;;1.60;0.30;;;7.30;46.30;;;;;;4963866;28;20780;-79
2021/12/09 09:28:04;;;;;;;0.52;0.20;;;7.40;45.80;;;;;;4970296;28;20402;-81
2021/12/09 09:30:36;;;;;;;0.20;0.10;;;7.40;46.20;;;;;;4968898;28;20419;-80
2021/12/09 09:33:09;;;;;;;0.40;0.10;;;7.40;46.40;;;;;;4963818;28;20418;-80
2021/12/09 09:35:37;;;;;;;0.40;0.20;;;7.40;46.80;;;;;;4966878;28;20926;-78
2021/12/09 09:38:06;;;;;;;0.40;0.20;;;7.50;45.90;;;;;;4969011;28;20403;-79
2021/12/09 09:40:49;;;;;;;0.75;0.30;;;7.50;45.80;;;;;;4967091;28;20403;-77
2021/12/09 09:46:06;;;;;;;1.20;0.30;;;7.70;44.70;;;;;;4964056;28;20872;-80
2021/12/09 09:48:35;;;;;;;0.30;0.20;;;7.70;44.60;;;;;;4971519;28;20738;-80
2021/12/09 09:51:04;;;;;;;1.00;0.20;;;7.70;44.10;;;;;;4968428;28;20490;-80
2021/12/09 09:53:33;;;;;;;0.20;0.10;;;7.90;43.20;;;;;;4965293;28;20462;-80
2021/12/09 09:56:01;;;;;;;0.60;0.40;;;7.90;43.50;;;;;;4960679;28;20417;-80
2021/12/09 09:58:28;;;;;;;1.55;0.47;;;7.90;43.30;;;;;;4971551;28;20423;-81
2021/12/09 10:00:55;;;;;;;1.08;0.40;;;8.00;42.80;;;;;;4970223;28;20427;-80
2021/12/09 10:03:29;;;;;;;1.08;0.28;;;8.10;42.70;;;;;;4971912;28;20934;-80
2021/12/09 10:06:02;;;;;;;0.67;0.27;;;8.10;42.20;;;;;;4970608;28;20423;-77
2021/12/09 10:08:31;;;;;;;0.38;0.20;;;8.20;42.60;;;;;;4955928;28;20405;-81
2021/12/09 10:10:59;;;;;;;0.38;0.10;;;8.30;41.90;;;;;;4959823;28;20407;-79
2021/12/09 10:13:31;;;;;;;0.50;0.20;;;8.30;42.10;;;;;;4973102;28;20418;-82
2021/12/09 10:16:00;;;;;;;1.10;0.30;;;8.30;42.50;;;;;;4987771;28;20407;-82
2021/12/09 10:18:45;;;;;;;0.60;0.20;;;8.30;42.40;;;;;;4960237;28;20487;-81
2021/12/09 10:21:18;;;;;;;0.50;0.30;;;8.40;41.20;;;;;;4957599;28;20407;-82
2021/12/09 10:23:50;;;;;;;0.50;0.20;;;8.40;41.50;;;;;;4965319;28;20434;-81
2021/12/09 10:26:37;;;;;;;0.30;0.20;;;8.50;40.50;;;;;;4970863;28;20444;-78
2021/12/09 10:29:13;;;;;;;0.20;0.20;;;8.50;41.00;;;;;;4971294;28;20404;-82
2021/12/09 10:31:44;;;;;;;0.82;0.20;;;8.60;40.70;;;;;;4968085;28;20508;-81
2021/12/09 10:34:28;;;;;;;1.50;0.20;;;8.60;40.70;;;;;;4976723;28;20411;-83
2021/12/09 10:36:59;;;;;;;1.25;0.25;;;8.70;40.70;;;;;;4973143;28;20415;-81
2021/12/09 10:39:49;;;;;;;0.20;0.10;;;8.80;40.50;;;;;;4961930;28;20941;-78
2021/12/09 10:42:22;;;;;;;0.40;0.20;;;8.80;40.00;;;;;;4978366;28;20415;-79
2021/12/09 10:44:54;;;;;;;1.70;0.20;;;8.90;40.50;;;;;;4976172;28;20942;-83
2021/12/09 10:48:20;;;;;;;0.55;0.22;;;8.90;41.00;;;;;;4976342;28;20780;-82
2021/12/09 10:50:38;;;;;;;0.30;0.20;;;9.00;39.00;;;;;;4968457;28;20496;-81
2021/12/09 10:56:05;;;;;;;0.30;0.10;;;9.20;38.50;;;;;;4977475;28;20876;-80
2021/12/09 10:58:36;;;;;;;0.70;0.10;;;9.40;38.60;;;;;;4975200;28;20407;-82
2021/12/09 11:01:16;;;;;;;0.13;0.10;;;9.50;39.20;;;;;;4971222;28;20427;-82
2021/12/09 11:03:46;;;;;;;0.70;0.20;;;9.60;38.70;;;;;;4973760;28;20426;-79
2021/12/09 11:06:19;;;;;;;0.20;0.10;;;9.80;38.40;;;;;;4977916;28;20430;-78
2021/12/09 11:08:49;;;;;;;0.30;0.10;;;9.90;36.80;;;;;;4961900;28;20404;-82
2021/12/09 11:11:41;;;;;;;0.40;0.20;;;10.00;36.30;;;;;;4965374;28;20490;-80
2021/12/09 11:14:12;;;;;;;0.13;0.10;;;10.10;37.70;;;;;;4964833;28;20495;-81
2021/12/09 11:17:03;;;;;;;0.70;0.10;;;10.10;36.10;;;;;;4968531;28;20424;-81
2021/12/09 11:22:07;;;;;;;0.40;0.30;;;10.20;37.50;;;;;;4978048;28;20458;-81
2021/12/09 11:24:39;;;;;;;0.30;0.20;;;10.30;37.40;;;;;;4962952;28;20483;-82
2021/12/09 11:27:08;;;;;;;0.67;0.17;;;10.30;37.70;;;;;;4975594;28;20881;-80
2021/12/09 11:29:44;;;;;;;0.20;0.10;;;10.30;36.30;;;;;;4977764;28;20425;-81
2021/12/09 11:35:26;;;;;;;0.50;0.20;;;10.60;35.60;;;;;;4968010;28;20526;-80
2021/12/09 11:40:37;;;;;;;0.30;0.20;;;10.80;35.90;;;;;;4968006;28;20793;-80
2021/12/09 11:43:12;;;;;;;0.30;0.13;;;10.90;35.30;;;;;;4965411;28;21114;-80
2021/12/09 11:45:44;;;;;;;0.32;0.10;;;11.00;35.00;;;;;;4978049;28;20408;-79
2021/12/09 11:48:12;;;;;;;0.70;0.20;;;11.00;35.20;;;;;;4993353;28;20403;-76
2021/12/09 11:50:46;;;;;;;0.30;0.20;;;11.20;34.10;;;;;;4974493;28;20826;-80
2021/12/09 11:53:20;;;;;;;0.90;0.20;;;11.20;34.40;;;;;;4969086;28;20405;-79
2021/12/09 11:56:00;;;;;;;0.45;0.10;;;11.20;35.80;;;;;;4972954;28;20413;-80
2021/12/09 11:58:31;;;;;;;0.30;0.20;;;11.20;33.30;;;;;;4970440;28;20410;-81
2021/12/09 12:12:54;;;;;;;0.45;0.20;;;11.60;32.80;;;;;;4974226;28;20414;-80
2021/12/09 12:15:31;;;;;;;0.20;0.10;;;11.70;32.50;;;;;;4975682;28;20414;-76
2021/12/09 12:23:42;;;;;;;0.23;0.10;;;11.90;32.30;;;;;;4970029;28;20457;-80
2021/12/09 12:26:51;;;;;;;0.55;0.10;;;12.00;31.40;;;;;;4969786;28;20399;-76
2021/12/09 12:35:27;;;;;;;1.00;0.10;;;11.90;32.00;;;;;;4976724;28;20438;-80
2021/12/09 12:38:10;;;;;;;0.50;0.10;;;11.90;31.10;;;;;;4986086;28;20436;-80
2021/12/09 12:40:46;;;;;;;1.00;0.20;;;11.80;31.70;;;;;;4969195;28;20413;-82
2021/12/09 12:43:32;;;;;;;0.40;0.10;;;11.90;31.20;;;;;;4955537;28;20824;-77
2021/12/09 12:49:31;;;;;;;0.20;0.20;;;12.00;30.90;;;;;;4946868;29;20450;-80
2021/12/09 12:52:12;;;;;;;1.70;0.17;;;11.80;30.90;;;;;;4941892;29;20438;-78
2021/12/09 12:54:49;;;;;;;0.60;0.10;;;11.70;30.50;;;;;;4923453;29;20419;-80
2021/12/09 12:57:34;;;;;;;0.20;0.10;;;11.60;31.00;;;;;;4944520;28;20458;-79
2021/12/09 13:00:01;;;;;;;0.70;0.13;;;11.60;30.60;;;;;;4973546;28;20415;-81
2021/12/09 13:03:01;;;;;;;0.73;0.15;;;11.60;30.60;;;;;;4976196;28;20419;-80
2021/12/09 13:06:07;;;;;;;1.10;0.10;;;11.50;31.00;;;;;;4971360;28;20439;-79
2021/12/09 13:11:23;;;;;;;0.20;0.10;;;11.70;30.90;;;;;;4970455;28;20484;-79
2021/12/09 13:14:06;;;;;;;1.40;0.10;;;11.70;29.70;;;;;;4969732;28;20458;-80
2021/12/09 13:16:59;;;;;;;0.40;0.10;;;11.80;29.60;;;;;;4981133;28;20757;-81
2021/12/09 13:19:38;;;;;;;0.60;0.20;;;11.80;30.30;;;;;;4969160;28;20427;-77
2021/12/09 13:22:11;;;;;;;0.60;0.10;;;11.80;30.70;;;;;;4968426;28;20419;-80
2021/12/09 13:36:01;;;;;;;0.38;0.10;;;11.90;29.30;;;;;;4972912;28;20892;-80
2021/12/09 13:39:08;;;;;;;0.28;0.10;;;11.80;29.70;;;;;;4971616;28;20462;-79
2021/12/09 13:49:48;;;;;;;0.50;0.10;;;11.80;29.60;;;;;;4971406;28;20416;-80
2021/12/09 13:55:17;;;;;;;0.30;0.10;;;11.70;29.40;;;;;;4970387;28;20403;-78
2021/12/09 13:57:51;;;;;;;0.20;0.10;;;11.50;29.30;;;;;;4965275;28;20401;-79
2021/12/09 14:00:27;;;;;;;0.20;0.10;;;11.30;30.50;;;;;;4975819;28;20427;-80
2021/12/09 14:02:58;;;;;;;0.20;0.10;;;11.20;30.10;;;;;;4975070;28;20454;-80
2021/12/09 14:05:35;;;;;;;0.30;0.10;;;11.00;29.90;;;;;;4987729;28;20473;-81
2021/12/09 14:08:06;;;;;;;0.60;0.20;;;10.90;29.30;;;;;;4984189;28;20411;-79
2021/12/09 14:10:37;;;;;;;0.30;0.10;;;10.80;30.00;;;;;;4965719;28;20874;-78
2021/12/09 14:13:12;;;;;;;0.60;0.20;;;10.80;30.00;;;;;;4976867;28;20880;-81